Time;durP1;ratioP1;P1;durP2;ratioP2;P2;SDS_P1;SDS_P2;PMS_P1;PMS_P2;Temp;Humidity;BMP_temperature;BMP_pressure;BME280_temperature;BME280_humidity;BME280_pressure;Samples;Min_cycle;Max_cycle;Signal;HPM_P1;HPM_P2
2023/05/22 00:01:00;;;;;;;8.73;3.88;;;;;;;21.71;43.44;101722.81;4968313;28;20034;-39
2023/05/22 00:03:27;;;;;;;7.50;3.83;;;;;;;21.64;43.53;101720.81;4969390;28;20125;-39
2023/05/22 00:05:57;;;;;;;9.65;4.25;;;;;;;21.56;43.67;101724.97;4933788;28;20359;-39
2023/05/22 00:08:24;;;;;;;5.95;4.03;;;;;;;21.57;43.92;101723.16;4966271;28;20426;-39
2023/05/22 00:10:49;;;;;;;7.13;4.50;;;;;;;21.45;44.00;101719.75;4931049;28;20093;-39
2023/05/22 00:13:15;;;;;;;6.57;4.40;;;;;;;21.42;44.24;101717.34;4933604;28;20434;-39
2023/05/22 00:15:40;;;;;;;10.52;4.63;;;;;;;21.41;44.01;101716.50;4938835;28;20035;-39
2023/05/22 00:18:07;;;;;;;6.20;3.80;;;;;;;21.35;44.41;101713.53;4933817;28;20038;-39
2023/05/22 00:20:37;;;;;;;9.23;5.07;;;;;;;21.26;44.40;101715.19;4956528;28;20054;-39
2023/05/22 00:23:03;;;;;;;9.30;4.65;;;;;;;21.31;44.36;101711.13;4967686;28;20030;-39
2023/05/22 00:25:29;;;;;;;8.55;4.28;;;;;;;21.36;44.41;101723.25;4955103;28;20057;-39
2023/05/22 00:27:55;;;;;;;6.13;4.30;;;;;;;21.26;44.38;101712.50;4963220;28;20550;-40
2023/05/22 00:30:20;;;;;;;7.68;4.10;;;;;;;21.17;44.88;101706.13;4949193;28;20038;-39
2023/05/22 00:32:46;;;;;;;6.53;4.35;;;;;;;21.12;44.83;101711.88;4937084;28;20037;-39
2023/05/22 00:35:11;;;;;;;7.20;4.18;;;;;;;21.15;44.66;101708.09;4964179;28;20362;-39
2023/05/22 00:37:37;;;;;;;8.25;4.82;;;;;;;21.10;44.84;101718.38;4950991;28;20935;-39
2023/05/22 00:40:04;;;;;;;7.35;4.40;;;;;;;21.05;44.74;101712.56;4971665;28;20034;-39
2023/05/22 00:42:30;;;;;;;6.70;4.65;;;;;;;21.01;45.15;101712.81;4948184;28;20038;-39
2023/05/22 00:44:55;;;;;;;7.22;4.65;;;;;;;20.98;45.06;101713.09;4955819;28;20080;-39
2023/05/22 00:47:22;;;;;;;7.88;3.78;;;;;;;20.98;45.20;101715.75;4966931;28;20524;-39
2023/05/22 00:49:48;;;;;;;8.77;4.88;;;;;;;20.93;44.98;101715.34;4946054;28;20122;-39
2023/05/22 00:52:16;;;;;;;8.55;4.40;;;;;;;20.94;44.92;101714.34;4958504;28;20039;-39
2023/05/22 00:54:42;;;;;;;7.95;4.13;;;;;;;20.91;44.83;101709.25;4970232;28;20089;-39
2023/05/22 00:57:10;;;;;;;6.05;4.00;;;;;;;20.88;44.90;101720.22;4953812;28;20030;-39
2023/05/22 00:59:36;;;;;;;7.22;4.35;;;;;;;20.88;44.99;101725.56;4971470;28;20100;-39
2023/05/22 01:02:02;;;;;;;6.95;3.80;;;;;;;20.89;44.63;101718.38;4951869;28;20748;-39
2023/05/22 01:04:31;;;;;;;6.60;4.20;;;;;;;20.84;44.67;101718.78;4957504;28;20477;-39
2023/05/22 01:07:01;;;;;;;9.27;4.25;;;;;;;20.86;44.97;101712.34;4947176;28;20516;-39
2023/05/22 01:09:34;;;;;;;7.57;4.32;;;;;;;20.90;44.20;101717.41;4965570;28;20053;-39
2023/05/22 01:12:03;;;;;;;6.18;2.58;;;;;;;20.89;44.28;101713.03;4952679;28;20085;-39
2023/05/22 01:15:06;;;;;;;6.15;3.88;;;;;;;20.84;44.53;101718.78;4964380;28;20046;-38
2023/05/22 01:17:45;;;;;;;8.70;3.75;;;;;;;20.83;44.32;101709.94;4964025;28;20662;-39
2023/05/22 01:20:20;;;;;;;8.35;4.10;;;;;;;20.81;43.92;101717.22;4970500;28;20034;-39
2023/05/22 01:23:36;;;;;;;6.53;3.65;;;;;;;20.79;44.34;101715.69;4964754;28;20057;-39
2023/05/22 01:26:20;;;;;;;6.97;3.45;;;;;;;20.70;44.19;101720.78;4945831;28;20026;-39
2023/05/22 01:29:13;;;;;;;8.60;4.70;;;;;;;20.68;44.19;101724.59;4954858;28;20069;-39
2023/05/22 01:31:41;;;;;;;6.75;4.53;;;;;;;20.67;44.13;101725.56;4964104;28;20516;-39
2023/05/22 01:34:12;;;;;;;6.47;3.70;;;;;;;20.68;44.42;101727.25;4961173;28;20034;-39
2023/05/22 01:36:40;;;;;;;7.28;3.67;;;;;;;20.65;44.04;101717.66;4969718;28;20036;-39
2023/05/22 01:39:07;;;;;;;6.85;3.78;;;;;;;20.66;44.08;101716.69;4969023;28;20041;-39
2023/05/22 01:41:33;;;;;;;8.02;3.63;;;;;;;20.65;44.11;101724.84;4949952;28;20564;-39
2023/05/22 01:44:00;;;;;;;7.57;4.22;;;;;;;20.60;44.24;101717.22;4947666;28;20046;-39
2023/05/22 01:46:27;;;;;;;7.65;3.75;;;;;;;20.59;44.39;101720.00;4939924;28;20126;-39
2023/05/22 01:48:53;;;;;;;7.65;3.33;;;;;;;20.55;44.28;101712.28;4949060;28;21918;-39
2023/05/22 01:51:38;;;;;;;7.07;3.85;;;;;;;20.58;44.02;101712.97;4967072;28;20038;-39
2023/05/22 01:54:22;;;;;;;6.22;2.92;;;;;;;20.55;44.00;101711.41;4968874;28;20217;-39
2023/05/22 01:57:15;;;;;;;6.75;3.75;;;;;;;20.48;44.37;101720.94;4966316;28;20042;-39
2023/05/22 02:00:15;;;;;;;6.45;3.58;;;;;;;20.49;44.36;101714.63;4966833;28;20153;-39
2023/05/22 02:02:44;;;;;;;6.85;3.75;;;;;;;20.47;44.29;101705.88;4966538;28;20033;-39
2023/05/22 02:05:14;;;;;;;7.20;3.60;;;;;;;20.44;44.25;101709.63;4969785;28;20026;-39
2023/05/22 02:07:41;;;;;;;6.93;3.72;;;;;;;20.39;44.35;101702.00;4944644;28;20126;-39
2023/05/22 02:10:10;;;;;;;8.95;3.85;;;;;;;20.39;44.33;101702.00;4934367;28;20074;-39
2023/05/22 02:12:36;;;;;;;8.95;3.78;;;;;;;20.36;44.44;101699.59;4967717;28;20022;-39
2023/05/22 02:15:02;;;;;;;5.80;3.58;;;;;;;20.34;44.31;101701.56;4956338;28;20042;-39
2023/05/22 02:17:28;;;;;;;6.47;3.17;;;;;;;20.32;44.08;101700.00;4960702;28;20026;-39
2023/05/22 02:19:53;;;;;;;7.32;3.80;;;;;;;20.30;43.92;101691.25;4934439;28;20038;-39
2023/05/22 02:22:19;;;;;;;7.07;3.92;;;;;;;20.29;44.44;101695.75;4945878;28;20117;-40
2023/05/22 02:24:46;;;;;;;6.03;3.60;;;;;;;20.25;44.25;101691.63;4944587;28;20042;-39
2023/05/22 02:27:13;;;;;;;6.38;3.65;;;;;;;20.25;44.07;101686.28;4970538;28;20030;-39
2023/05/22 02:29:39;;;;;;;11.95;3.88;;;;;;;20.21;44.29;101691.06;4937009;28;20042;-39
2023/05/22 02:32:05;;;;;;;7.43;4.13;;;;;;;20.21;44.25;101688.38;4963398;28;20046;-39
2023/05/22 02:34:30;;;;;;;7.05;3.72;;;;;;;20.19;44.18;101686.84;4931549;28;20046;-39
2023/05/22 02:37:02;;;;;;;5.35;3.53;;;;;;;20.17;44.51;101688.78;4959611;28;20041;-39
2023/05/22 02:39:28;;;;;;;7.93;3.72;;;;;;;20.08;44.48;101685.88;4951384;28;20458;-39
2023/05/22 02:41:53;;;;;;;5.88;3.88;;;;;;;20.05;44.79;101680.78;4966697;28;20046;-39
2023/05/22 02:44:19;;;;;;;9.27;3.88;;;;;;;20.04;44.69;101681.75;4950621;28;20042;-39
2023/05/22 02:46:46;;;;;;;6.30;4.10;;;;;;;20.05;44.61;101680.78;4957843;28;20057;-39
2023/05/22 02:49:12;;;;;;;7.68;4.35;;;;;;;20.05;44.65;101675.44;4945851;28;20031;-39
2023/05/22 02:51:39;;;;;;;9.43;3.85;;;;;;;20.06;44.69;101677.16;4942322;28;20035;-39
2023/05/22 02:54:05;;;;;;;8.68;4.20;;;;;;;20.06;44.33;101685.16;4963003;28;20038;-39
2023/05/22 02:56:30;;;;;;;8.05;4.05;;;;;;;20.04;44.62;101679.09;4930019;28;20371;-39
2023/05/22 02:58:58;;;;;;;8.10;3.70;;;;;;;20.04;44.34;101678.25;4925879;28;20098;-39
2023/05/22 03:01:25;;;;;;;10.82;4.32;;;;;;;20.00;44.72;101677.69;4936223;28;20066;-39
2023/05/22 03:03:51;;;;;;;9.85;4.25;;;;;;;19.98;44.49;101678.75;4967850;28;20401;-39
2023/05/22 03:06:17;;;;;;;6.47;3.60;;;;;;;19.96;44.56;101676.22;4935425;28;20065;-39
2023/05/22 03:08:43;;;;;;;5.35;3.42;;;;;;;19.95;44.51;101678.06;4949963;28;20149;-39
2023/05/22 03:11:09;;;;;;;9.30;4.15;;;;;;;19.94;44.64;101678.19;4937984;28;20054;-39
2023/05/22 03:13:35;;;;;;;9.80;3.95;;;;;;;19.93;44.50;101673.81;4968418;28;20038;-39
2023/05/22 03:16:01;;;;;;;11.43;4.53;;;;;;;19.91;44.66;101675.75;4952535;28;20495;-39
2023/05/22 03:18:26;;;;;;;14.25;8.60;;;;;;;19.89;44.76;101667.03;4969194;28;20030;-39
2023/05/22 03:20:52;;;;;;;30.17;15.07;;;;;;;19.87;44.69;101672.50;4968984;28;20035;-39
2023/05/22 03:23:19;;;;;;;13.77;7.00;;;;;;;19.85;44.98;101668.22;4970782;28;20040;-39
2023/05/22 03:25:46;;;;;;;11.90;4.40;;;;;;;19.84;44.90;101672.72;4949857;28;20062;-39
2023/05/22 03:28:12;;;;;;;10.15;4.32;;;;;;;19.83;44.99;101667.50;4954510;28;20035;-39
2023/05/22 03:30:37;;;;;;;9.45;4.63;;;;;;;19.82;44.94;101668.47;4946768;28;20042;-39
2023/05/22 03:33:03;;;;;;;8.50;4.70;;;;;;;19.79;44.90;101667.75;4954281;28;20048;-39
2023/05/22 03:35:28;;;;;;;9.18;4.03;;;;;;;19.77;45.19;101661.69;4937435;28;20111;-39
2023/05/22 03:37:54;;;;;;;11.55;4.18;;;;;;;19.77;45.09;101660.84;4936702;28;20045;-39
2023/05/22 03:40:20;;;;;;;6.43;4.22;;;;;;;19.76;45.21;101664.50;4954569;28;20038;-39
2023/05/22 03:42:45;;;;;;;12.43;4.50;;;;;;;19.74;45.10;101661.94;4950717;28;20026;-39
2023/05/22 03:45:11;;;;;;;8.32;4.43;;;;;;;19.74;45.17;101666.44;4952625;28;20069;-39
2023/05/22 03:47:37;;;;;;;8.38;4.70;;;;;;;19.70;45.30;101665.00;4938700;28;20031;-39
2023/05/22 03:50:02;;;;;;;21.13;13.45;;;;;;;19.70;45.51;101663.19;4968057;28;20403;-39
2023/05/22 03:52:28;;;;;;;46.95;25.40;;;;;;;19.71;45.33;101661.34;4938208;28;20094;-41
2023/05/22 03:54:53;;;;;;;17.45;11.20;;;;;;;19.73;45.60;101664.75;4933882;28;20046;-39
2023/05/22 03:57:19;;;;;;;12.93;5.85;;;;;;;19.75;45.37;101663.63;4932874;28;20034;-39
2023/05/22 03:59:45;;;;;;;9.68;4.78;;;;;;;19.78;45.21;101660.72;4952196;28;20393;-39
2023/05/22 04:02:11;;;;;;;5.80;3.03;;;;;;;19.77;45.55;101659.03;4951066;28;20485;-39
2023/05/22 04:04:37;;;;;;;9.98;4.38;;;;;;;19.79;45.30;101657.06;4971741;28;20444;-39
2023/05/22 04:07:07;;;;;;;12.30;4.60;;;;;;;19.81;45.49;101654.28;4969520;28;21309;-38
2023/05/22 04:09:35;;;;;;;8.27;4.38;;;;;;;19.82;45.44;101657.81;4952460;28;20500;-38
2023/05/22 04:12:02;;;;;;;9.38;4.43;;;;;;;19.84;45.54;101651.34;4965592;28;20034;-39
2023/05/22 04:14:28;;;;;;;7.35;4.50;;;;;;;19.86;45.52;101656.56;4970368;28;20110;-40
2023/05/22 04:16:54;;;;;;;12.18;4.88;;;;;;;19.88;45.58;101649.31;4975178;28;20049;-40
2023/05/22 04:19:19;;;;;;;7.38;4.43;;;;;;;19.90;45.39;101658.03;4954696;28;20244;-40
2023/05/22 04:21:46;;;;;;;8.15;4.38;;;;;;;19.92;45.60;101656.09;4957914;28;20893;-40
2023/05/22 04:24:14;;;;;;;11.07;4.63;;;;;;;19.94;45.48;101649.66;4960631;28;20034;-40
2023/05/22 04:26:40;;;;;;;8.65;4.05;;;;;;;19.96;45.30;101646.84;4966302;28;20413;-41
2023/05/22 04:29:09;;;;;;;11.13;4.53;;;;;;;19.98;45.65;101655.59;4936164;28;20050;-40
2023/05/22 04:31:35;;;;;;;7.78;4.22;;;;;;;19.97;45.60;101653.88;4945739;28;20035;-40
2023/05/22 04:34:01;;;;;;;11.57;5.25;;;;;;;19.94;45.79;101652.31;4962148;28;20497;-39
2023/05/22 04:36:27;;;;;;;7.45;4.22;;;;;;;19.96;45.82;101660.19;4954473;28;20057;-39
2023/05/22 04:38:53;;;;;;;12.35;5.28;;;;;;;19.98;45.99;101655.59;4960040;28;20166;-39
2023/05/22 04:41:25;;;;;;;13.57;4.68;;;;;;;20.02;45.95;101662.38;4957538;28;20243;-39
2023/05/22 04:43:53;;;;;;;11.88;6.80;;;;;;;20.07;45.89;101664.66;4966097;28;20393;-39
2023/05/22 04:46:19;;;;;;;7.43;4.70;;;;;;;20.08;46.00;101659.16;4952038;28;20117;-39
2023/05/22 04:48:46;;;;;;;9.25;4.38;;;;;;;20.15;45.93;101658.66;4929788;28;20390;-40
2023/05/22 04:51:13;;;;;;;6.45;4.35;;;;;;;20.21;45.84;101658.13;4940686;28;20038;-38
2023/05/22 04:53:38;;;;;;;9.02;4.00;;;;;;;20.27;45.56;101662.13;4963639;28;20030;-38
2023/05/22 04:56:05;;;;;;;14.20;4.85;;;;;;;20.29;45.92;101661.00;4941447;28;20386;-38
2023/05/22 04:58:30;;;;;;;14.57;4.70;;;;;;;20.30;45.64;101657.38;4957191;28;20037;-38
2023/05/22 05:00:59;;;;;;;7.20;4.13;;;;;;;20.34;45.73;101661.47;4945735;28;20034;-38
2023/05/22 05:03:26;;;;;;;7.70;3.85;;;;;;;20.35;45.44;101660.47;4962719;28;20069;-39
2023/05/22 05:05:51;;;;;;;8.82;3.72;;;;;;;20.37;45.44;101658.53;4959457;28;20041;-38
2023/05/22 05:08:17;;;;;;;10.65;4.82;;;;;;;20.39;45.64;101661.91;4944331;28;20038;-39
2023/05/22 05:10:42;;;;;;;9.70;4.63;;;;;;;20.39;45.55;101661.09;4963171;28;20049;-38
2023/05/22 05:13:08;;;;;;;20.48;10.07;;;;;;;20.35;45.74;101657.81;4960037;28;20034;-38
2023/05/22 05:15:34;;;;;;;13.55;5.93;;;;;;;20.36;45.96;101662.16;4973649;28;20041;-38
2023/05/22 05:17:59;;;;;;;18.23;5.25;;;;;;;20.36;45.89;101656.81;4965753;28;20064;-38
2023/05/22 05:20:26;;;;;;;10.68;5.35;;;;;;;20.41;46.02;101662.63;4974398;28;20061;-38
2023/05/22 05:22:51;;;;;;;11.45;5.10;;;;;;;20.43;46.20;101661.66;4943143;28;20038;-38
2023/05/22 05:25:17;;;;;;;10.75;4.55;;;;;;;20.48;45.73;101659.47;4973465;28;20081;-38
2023/05/22 05:27:45;;;;;;;13.90;4.50;;;;;;;20.52;45.93;101661.72;4973548;28;20085;-38
2023/05/22 05:30:11;;;;;;;20.02;8.77;;;;;;;20.57;45.73;101664.00;4958746;28;20049;-38
2023/05/22 05:32:37;;;;;;;14.05;4.95;;;;;;;20.61;45.91;101664.56;4941752;28;20033;-38
2023/05/22 05:35:03;;;;;;;10.75;4.53;;;;;;;20.62;45.97;101661.78;4961005;28;23725;-38
2023/05/22 05:37:28;;;;;;;8.38;4.55;;;;;;;20.65;45.94;101666.84;4940463;28;20517;-38
2023/05/22 05:39:54;;;;;;;10.82;4.40;;;;;;;20.66;45.83;101662.38;4951884;28;20038;-38
2023/05/22 05:42:20;;;;;;;12.13;4.25;;;;;;;20.67;45.89;101656.88;4956189;28;20045;-38
2023/05/22 05:44:45;;;;;;;8.20;4.20;;;;;;;20.73;45.71;101662.69;4936990;28;20046;-38
2023/05/22 05:47:11;;;;;;;10.05;4.10;;;;;;;20.77;45.91;101656.13;4940566;28;20117;-40
2023/05/22 05:49:36;;;;;;;5.78;4.05;;;;;;;20.81;45.75;101662.88;4938627;28;20405;-39
2023/05/22 05:52:03;;;;;;;8.32;3.53;;;;;;;20.84;45.79;101659.94;4935226;28;20038;-38
2023/05/22 05:54:28;;;;;;;9.82;4.45;;;;;;;20.85;45.57;101662.50;4943259;28;20527;-39
2023/05/22 05:56:54;;;;;;;9.85;4.95;;;;;;;20.90;45.51;101662.09;4971184;28;20049;-39
2023/05/22 05:59:19;;;;;;;8.70;4.15;;;;;;;20.96;45.46;101658.03;4961441;28;20042;-38
2023/05/22 06:01:46;;;;;;;10.45;4.03;;;;;;;21.01;45.50;101662.00;4956271;28;20069;-38
2023/05/22 06:04:14;;;;;;;8.57;3.78;;;;;;;21.06;44.99;101663.41;4959060;28;20051;-38
2023/05/22 06:06:43;;;;;;;9.55;3.85;;;;;;;21.08;45.13;101662.28;4958297;28;20042;-38
2023/05/22 06:09:09;;;;;;;9.75;4.32;;;;;;;21.10;45.35;101662.19;4956570;28;20109;-38
2023/05/22 06:11:34;;;;;;;11.48;4.38;;;;;;;21.12;45.18;101658.38;4970283;28;20515;-38
2023/05/22 06:14:04;;;;;;;7.50;4.38;;;;;;;21.15;45.42;101657.25;4951630;28;20141;-38
2023/05/22 06:16:29;;;;;;;18.35;6.68;;;;;;;21.16;45.56;101658.94;4947282;28;20034;-38
2023/05/22 06:18:57;;;;;;;7.25;3.80;;;;;;;21.20;45.50;101651.47;4943200;28;20449;-38
2023/05/22 06:21:23;;;;;;;12.63;4.50;;;;;;;21.22;45.62;101647.69;4956921;28;20067;-39
2023/05/22 06:23:49;;;;;;;8.35;3.33;;;;;;;21.24;45.16;101659.13;4948796;28;20042;-39
2023/05/22 06:26:16;;;;;;;7.32;3.67;;;;;;;21.27;45.58;101655.31;4952009;28;20038;-39
2023/05/22 06:28:42;;;;;;;9.10;4.25;;;;;;;21.31;45.36;101659.41;4966072;28;20026;-39
2023/05/22 06:31:10;;;;;;;9.68;4.53;;;;;;;21.32;45.39;101659.28;4948697;28;20035;-39
2023/05/22 06:33:36;;;;;;;8.73;4.10;;;;;;;21.36;45.06;101659.00;4945585;28;20041;-39
2023/05/22 06:36:03;;;;;;;7.60;3.53;;;;;;;21.39;45.24;101659.56;4959818;28;20038;-39
2023/05/22 06:38:30;;;;;;;5.15;3.30;;;;;;;21.42;45.17;101658.44;4965530;28;20027;-39
2023/05/22 06:40:55;;;;;;;11.48;4.80;;;;;;;21.44;45.28;101661.81;4958879;28;20493;-39
2023/05/22 06:43:21;;;;;;;13.77;4.72;;;;;;;21.45;45.39;101658.16;4950113;28;20049;-38
2023/05/22 06:45:46;;;;;;;11.55;4.85;;;;;;;21.47;45.46;101661.56;4967827;28;20038;-39
2023/05/22 06:48:12;;;;;;;5.32;2.55;;;;;;;21.49;45.01;101654.22;4966363;28;20037;-39
2023/05/22 06:50:38;;;;;;;10.40;3.97;;;;;;;21.50;45.19;101655.94;4950507;28;20046;-39
2023/05/22 06:53:03;;;;;;;8.02;3.50;;;;;;;21.54;45.23;101656.50;4971351;28;20074;-39
2023/05/22 06:55:31;;;;;;;10.25;3.83;;;;;;;21.56;44.72;101655.34;4956425;28;20059;-39
2023/05/22 06:57:56;;;;;;;9.57;3.88;;;;;;;21.60;44.63;101643.41;4955330;28;20055;-39
2023/05/22 07:00:22;;;;;;;11.68;4.25;;;;;;;21.65;44.54;101652.88;4949317;28;21176;-39
2023/05/22 07:02:48;;;;;;;9.50;4.40;;;;;;;21.67;44.47;101653.59;4957373;28;20026;-39
2023/05/22 07:05:14;;;;;;;12.15;3.72;;;;;;;21.70;44.41;101650.63;4966711;28;20049;-39
2023/05/22 07:07:39;;;;;;;12.23;3.38;;;;;;;21.75;44.20;101653.72;4967435;28;20123;-39
2023/05/22 07:10:06;;;;;;;7.97;3.83;;;;;;;21.80;44.08;101646.13;4955764;28;20039;-39
2023/05/22 07:12:31;;;;;;;13.38;4.10;;;;;;;21.85;43.79;101646.56;4939366;28;20034;-39
2023/05/22 07:14:58;;;;;;;8.20;3.80;;;;;;;21.91;43.92;101645.16;4970146;28;20104;-39
2023/05/22 07:17:24;;;;;;;8.25;3.70;;;;;;;21.92;43.39;101649.53;4968989;28;20022;-39
2023/05/22 07:19:50;;;;;;;10.02;3.80;;;;;;;21.96;43.39;101648.22;4953066;28;20064;-39
2023/05/22 07:22:15;;;;;;;7.25;3.90;;;;;;;22.01;43.33;101658.50;4964605;28;20018;-39
2023/05/22 07:24:41;;;;;;;10.68;3.22;;;;;;;22.03;43.33;101653.84;4987092;28;20026;-39
2023/05/22 07:27:08;;;;;;;12.73;4.95;;;;;;;22.06;43.33;101653.59;4972057;28;20041;-39
2023/05/22 07:29:33;;;;;;;13.48;6.22;;;;;;;22.11;43.63;101650.47;4942918;28;20476;-39
2023/05/22 07:31:59;;;;;;;13.93;4.95;;;;;;;22.15;43.60;101646.53;4958056;28;20396;-39
2023/05/22 07:34:30;;;;;;;5.32;3.28;;;;;;;22.20;43.25;101652.31;4971125;28;20453;-39
2023/05/22 07:36:56;;;;;;;9.68;3.97;;;;;;;22.27;43.41;101647.22;4956640;28;20042;-39
2023/05/22 07:39:22;;;;;;;12.95;3.53;;;;;;;22.30;43.45;101646.94;4973950;28;20038;-39
2023/05/22 07:41:51;;;;;;;7.32;3.78;;;;;;;22.36;43.35;101647.22;4960060;28;20157;-39
2023/05/22 07:44:16;;;;;;;9.60;3.63;;;;;;;22.39;42.94;101644.22;4951381;28;20511;-39
2023/05/22 07:46:42;;;;;;;15.80;4.38;;;;;;;22.44;43.02;101638.47;4959094;28;20037;-39
2023/05/22 07:49:08;;;;;;;6.45;3.90;;;;;;;22.46;43.18;101636.47;4956018;28;20072;-39
2023/05/22 07:51:33;;;;;;;6.45;3.42;;;;;;;22.48;42.74;101634.50;4953879;28;20081;-39
2023/05/22 07:53:59;;;;;;;9.02;4.15;;;;;;;22.52;42.80;101635.06;4949738;28;20081;-40
2023/05/22 07:56:26;;;;;;;8.23;3.42;;;;;;;22.55;42.58;101639.28;4971518;28;20162;-39
2023/05/22 07:58:51;;;;;;;11.82;3.20;;;;;;;22.60;42.62;101634.34;4967404;28;20513;-39
2023/05/22 08:01:17;;;;;;;6.15;3.35;;;;;;;22.63;42.29;101631.34;4943789;28;20027;-39
2023/05/22 08:03:43;;;;;;;6.35;3.60;;;;;;;22.67;41.96;101630.06;4939963;28;20884;-39
2023/05/22 08:06:08;;;;;;;7.68;3.45;;;;;;;22.71;42.28;101628.78;4943127;28;20054;-39
2023/05/22 08:08:34;;;;;;;9.00;2.83;;;;;;;22.77;41.83;101624.66;4949472;28;20030;-39
2023/05/22 08:10:59;;;;;;;14.80;3.72;;;;;;;22.82;41.61;101628.59;4965539;28;20819;-39
2023/05/22 08:13:25;;;;;;;16.90;4.50;;;;;;;22.88;41.62;101629.81;4970179;28;20023;-39
2023/05/22 08:15:51;;;;;;;7.60;4.18;;;;;;;22.91;41.77;101628.72;4938922;28;20034;-39
2023/05/22 08:18:16;;;;;;;10.15;3.05;;;;;;;22.94;41.62;101625.69;4967443;28;20507;-39
2023/05/22 08:20:42;;;;;;;14.23;3.30;;;;;;;23.00;41.20;101625.13;4971170;28;20030;-39
2023/05/22 08:23:07;;;;;;;7.18;3.60;;;;;;;23.04;40.73;101629.19;4962504;28;20041;-39
2023/05/22 08:25:33;;;;;;;17.08;3.17;;;;;;;23.11;40.49;101624.06;4951194;28;20397;-39
2023/05/22 08:27:59;;;;;;;9.50;5.47;;;;;;;23.17;39.81;101628.81;4986708;28;20019;-39
2023/05/22 08:30:24;;;;;;;7.30;3.47;;;;;;;23.22;39.71;101628.41;4952062;28;20520;-39
2023/05/22 08:32:50;;;;;;;7.97;2.75;;;;;;;23.25;39.62;101633.47;4982560;28;20030;-39
2023/05/22 08:35:16;;;;;;;5.00;2.50;;;;;;;23.24;39.28;101629.97;4951686;28;20050;-39
2023/05/22 08:37:41;;;;;;;6.43;2.80;;;;;;;23.28;39.19;101627.81;4982304;28;20026;-39
2023/05/22 08:40:11;;;;;;;5.22;2.40;;;;;;;23.31;38.78;101624.84;4969663;28;20038;-39
2023/05/22 08:42:37;;;;;;;8.95;2.78;;;;;;;23.37;38.50;101624.22;4964961;28;20022;-39
2023/05/22 08:45:05;;;;;;;6.88;2.70;;;;;;;23.40;37.98;101623.91;4968958;28;20033;-39
2023/05/22 08:47:33;;;;;;;11.52;2.83;;;;;;;23.43;38.02;101618.25;4970232;28;20034;-39
2023/05/22 08:50:00;;;;;;;6.55;2.83;;;;;;;23.46;37.77;101619.78;4972188;28;20428;-39
2023/05/22 08:52:33;;;;;;;6.97;2.83;;;;;;;23.50;37.24;101625.69;4954754;28;20031;-39
2023/05/22 08:55:04;;;;;;;4.82;2.45;;;;;;;23.53;37.01;101611.94;4982823;28;20065;-39
2023/05/22 08:57:31;;;;;;;4.28;2.40;;;;;;;23.54;37.44;101608.25;4972877;28;20026;-39
2023/05/22 08:59:56;;;;;;;10.93;4.07;;;;;;;23.59;37.01;101614.88;4955631;28;20030;-39
2023/05/22 09:02:23;;;;;;;5.18;2.90;;;;;;;23.64;37.08;101609.06;4956914;28;20030;-39
2023/05/22 09:04:48;;;;;;;6.85;2.63;;;;;;;23.68;36.81;101612.28;4957554;28;20026;-39
2023/05/22 09:07:14;;;;;;;8.27;3.72;;;;;;;23.71;36.67;101599.34;4956111;28;20053;-39
2023/05/22 09:09:40;;;;;;;10.07;3.55;;;;;;;23.74;36.70;101601.75;4956353;28;20034;-39
2023/05/22 09:12:10;;;;;;;6.13;3.17;;;;;;;23.78;36.26;101602.28;4955178;28;20030;-39
2023/05/22 09:14:43;;;;;;;14.70;5.10;;;;;;;23.81;35.88;101587.69;4967748;28;21029;-39
2023/05/22 09:17:13;;;;;;;7.40;3.03;;;;;;;23.82;36.13;101589.41;4957666;28;20065;-39
2023/05/22 09:19:43;;;;;;;5.55;2.90;;;;;;;23.87;36.09;101597.81;4954492;28;20129;-39
2023/05/22 09:22:09;;;;;;;5.00;2.55;;;;;;;23.88;35.63;101588.75;4981562;28;20110;-39
2023/05/22 09:24:41;;;;;;;6.10;2.72;;;;;;;23.94;35.08;101581.91;4975312;28;20038;-39
2023/05/22 09:27:06;;;;;;;4.78;2.53;;;;;;;23.97;35.32;101581.63;4955565;28;20094;-39
2023/05/22 09:29:47;;;;;;;4.80;3.10;;;;;;;23.99;35.26;101572.41;4955386;28;20079;-39
2023/05/22 09:32:13;;;;;;;7.63;3.17;;;;;;;24.01;35.09;101573.09;4970534;28;20034;-39
2023/05/22 09:34:39;;;;;;;4.20;2.40;;;;;;;24.03;35.08;101575.63;4933346;28;20120;-39
2023/05/22 09:37:05;;;;;;;9.27;2.70;;;;;;;24.08;34.69;101573.31;4935665;28;20030;-39
2023/05/22 09:39:44;;;;;;;9.02;2.53;;;;;;;24.14;33.61;101566.44;4956504;28;20042;-39
2023/05/22 09:42:13;;;;;;;4.45;2.58;;;;;;;24.15;34.53;101565.44;4952711;28;20072;-39
2023/05/22 09:44:41;;;;;;;6.80;2.75;;;;;;;24.17;34.71;101568.81;4941115;28;20038;-39
2023/05/22 09:47:07;;;;;;;6.10;2.65;;;;;;;24.20;34.78;101573.88;4963689;28;20488;-39
2023/05/22 09:49:40;;;;;;;5.78;2.47;;;;;;;24.18;34.46;101567.81;4974215;28;20046;-39
2023/05/22 09:52:08;;;;;;;7.80;2.55;;;;;;;24.20;34.51;101576.56;4967321;28;20092;-39
2023/05/22 09:54:34;;;;;;;7.65;2.85;;;;;;;24.25;33.93;101574.25;4972161;28;20417;-39
2023/05/22 09:57:03;;;;;;;3.72;2.08;;;;;;;24.27;33.87;101566.03;4954646;28;20062;-39
2023/05/22 09:59:30;;;;;;;9.00;2.20;;;;;;;24.31;33.65;101572.78;4965933;28;20027;-40
2023/05/22 10:01:56;;;;;;;9.25;4.13;;;;;;;24.34;33.69;101573.31;4965070;28;20085;-39
2023/05/22 10:04:22;;;;;;;6.40;2.25;;;;;;;24.37;33.58;101561.38;4969111;28;22971;-39
2023/05/22 10:06:52;;;;;;;5.07;3.20;;;;;;;24.42;32.95;101560.91;4971247;28;20026;-39
2023/05/22 10:09:22;;;;;;;6.28;2.63;;;;;;;24.47;33.32;101556.72;4967566;28;20057;-39
2023/05/22 10:11:51;;;;;;;7.25;2.67;;;;;;;24.51;32.84;101551.88;4954370;28;20026;-39
2023/05/22 10:14:17;;;;;;;10.50;2.90;;;;;;;24.53;32.90;101560.63;4953648;28;20395;-39
2023/05/22 10:16:44;;;;;;;4.93;2.25;;;;;;;24.57;32.87;101562.00;4974004;28;20544;-39
2023/05/22 10:19:11;;;;;;;7.75;2.70;;;;;;;24.61;32.56;101541.81;4951470;28;20509;-39
2023/05/22 10:21:40;;;;;;;5.60;2.60;;;;;;;24.66;32.48;101544.00;4940678;28;20034;-39
2023/05/22 10:24:06;;;;;;;6.78;2.97;;;;;;;24.66;32.55;101541.31;4969722;28;20037;-40
2023/05/22 10:26:32;;;;;;;3.65;2.38;;;;;;;24.72;32.44;101537.19;4965684;28;20041;-39
2023/05/22 10:29:13;;;;;;;7.22;3.00;;;;;;;24.77;31.94;101537.53;4975447;28;20034;-39
2023/05/22 10:31:55;;;;;;;5.35;2.85;;;;;;;24.83;32.32;101531.50;4976533;28;20018;-39
2023/05/22 10:34:35;;;;;;;6.35;2.50;;;;;;;24.84;32.26;101535.88;4963458;28;20048;-39
2023/05/22 10:37:25;;;;;;;4.75;2.58;;;;;;;24.94;32.62;101538.44;4966596;28;20030;-39
2023/05/22 10:40:07;;;;;;;5.13;2.80;;;;;;;25.00;32.15;101523.47;4977649;28;20041;-39
2023/05/22 10:42:33;;;;;;;6.18;3.40;;;;;;;25.04;32.50;101522.09;4973549;28;20291;-40
2023/05/22 10:45:05;;;;;;;7.28;3.70;;;;;;;25.11;32.14;101521.28;4940295;28;20529;-41
2023/05/22 10:47:32;;;;;;;3.97;1.70;;;;;;;25.16;32.26;101515.41;4969165;28;20112;-39
2023/05/22 10:50:16;;;;;;;6.20;3.05;;;;;;;25.24;31.43;101515.41;4970664;28;20042;-39
2023/05/22 10:52:42;;;;;;;5.60;2.65;;;;;;;25.25;31.94;101510.88;4941700;28;20053;-39
2023/05/22 10:55:09;;;;;;;3.63;2.22;;;;;;;25.31;31.80;101514.75;4956236;28;20409;-39
2023/05/22 10:57:38;;;;;;;7.85;3.17;;;;;;;25.36;31.34;101510.56;4974489;28;20121;-39
2023/05/22 11:00:14;;;;;;;11.38;3.60;;;;;;;25.41;31.05;101510.03;4964595;28;20130;-39
2023/05/22 11:02:44;;;;;;;8.07;3.10;;;;;;;25.47;30.86;101509.41;4969850;28;20030;-39
2023/05/22 11:05:12;;;;;;;5.55;2.90;;;;;;;25.52;30.59;101501.66;4956609;28;20034;-39
2023/05/22 11:07:41;;;;;;;4.82;2.60;;;;;;;25.59;30.22;101503.69;4969426;28;20061;-40
2023/05/22 11:10:07;;;;;;;6.25;2.55;;;;;;;25.61;30.11;101494.41;4974887;28;20031;-40
2023/05/22 11:12:32;;;;;;;5.28;2.33;;;;;;;25.66;30.13;101496.56;4970354;28;21771;-39
2023/05/22 11:15:11;;;;;;;3.80;2.20;;;;;;;25.73;29.22;101497.59;4937151;28;20046;-39
2023/05/22 11:17:48;;;;;;;6.82;2.20;;;;;;;25.76;30.24;101494.56;4958028;28;20096;-39
2023/05/22 11:20:21;;;;;;;8.60;3.17;;;;;;;25.79;30.10;101482.59;4968299;28;20025;-39
2023/05/22 11:22:55;;;;;;;4.68;2.92;;;;;;;25.85;29.41;101485.44;4973194;28;20019;-40
2023/05/22 11:25:21;;;;;;;8.82;3.10;;;;;;;25.91;29.90;101480.38;4956183;28;20045;-41